Susanne.pairtrawler — DETY — position and weather

sailwx.info

Track history (hours):
 
Tides and Currents Weather Stations Pressure Air Temp Water Temp Dewpoint Dewpoint Depression Visibility Wind Speed Wind Dir Waves Ship Positions

Susanne.pairtrawler

Last reported at 2016-May-28 00:33 UTC. Time now 2016-May-31 12:02 UTC.
Position N 57°27' E 007°37'.

Length 40 m; draft 5 m.

Type: Fishing. MMSI: 211227510.

Date/timePositionNaut miles runAvg speedWind from/ knotsBaromVisibWave heightAir tempDewpointWater temp
2016-May-28 00:33N 57°27' E 007°37'4 4.1
2016-May-27 23:33N 57°28' E 007°30'4 4.1
2016-May-27 22:33N 57°28' E 007°22'4 4.1
2016-May-27 21:33N 57°28' E 007°14'3 2.7
2016-May-27 20:28N 57°27' E 007°09'3 3.4
2016-May-27 19:31N 57°27' E 007°03'4 3.8
2016-May-27 18:33N 57°27' E 006°56'4 3.7
2016-May-27 17:33N 57°29' E 006°50'3 3.2
2016-May-27 16:33N 57°30' E 006°45'3 3.0
2016-May-27 15:33N 57°32' E 006°41'4 3.9
2016-May-27 14:33N 57°34' E 006°35'4 4.0
2016-May-27 13:33N 57°37' E 006°30'4 4.1
2016-May-27 12:33N 57°40' E 006°24'4 3.9
2016-May-27 11:33N 57°40' E 006°16'4 4.1
2016-May-27 10:33N 57°41' E 006°09'23 7.6
2016-May-27 07:28N 57°51' E 005°30'9 9.7
2016-May-27 06:34N 57°55' E 005°15'9 9.3
2016-May-27 05:34N 58°00' E 005°00'10 9.6
2016-May-27 04:34N 58°05' E 004°45'5 4.9
2016-May-27 03:34N 58°07' E 004°36'4 4.0
2016-May-27 02:34N 58°09' E 004°30'4 4.1
2016-May-27 01:34N 58°12' E 004°24'4 3.9
2016-May-27 00:34N 58°14' E 004°18'4 4.0
2016-May-26 23:34N 58°17' E 004°13'4 3.9
2016-May-26 22:34N 58°20' E 004°07'4 3.8
2016-May-26 21:33N 58°23' E 004°03'4 3.6
2016-May-26 20:32N 58°26' E 003°59'6 6.5
2016-May-26 19:33N 58°30' E 003°50'1010.3
2016-May-26 18:33N 58°39' E 003°41'1311.0
2016-May-26 17:22N 58°51' E 003°29'3 0.3
2016-May-26 05:33N 58°49' E 003°34'4 4.0
2016-May-26 04:33N 58°53' E 003°31'4 4.0
2016-May-26 03:33N 58°56' E 003°27'4 4.0
2016-May-26 02:34N 58°60' E 003°24'4 4.1
2016-May-26 01:29N 59°04' E 003°24'  
2016-May-21 07:32N 58°49' E 004°23'1111.0
2016-May-21 06:33N 58°42' E 004°39'1110.9
2016-May-21 05:33N 58°35' E 004°55'2110.6
2016-May-21 03:33N 58°22' E 005°26'1510.7
2016-May-21 02:08N 58°12' E 005°48'610.1
2016-May-21 01:32N 58°08' E 005°57'9 9.5
2016-May-21 00:33N 58°02' E 006°11'9 8.9
2016-May-20 23:33N 57°57' E 006°24'  
Track history (hours):
 
Tides and Currents Weather Stations Pressure Air Temp Water Temp Dewpoint Dewpoint Depression Visibility Wind Speed Wind Dir Waves Ship Positions

Susanne.pairtrawler

Last reported at 2016-May-28 00:33 UTC. Time now 2016-May-31 12:02 UTC.
Position N 57°27' E 007°37'.

Length 40 m; draft 5 m.

Type: Fishing. MMSI: 211227510.

Date/timePositionNaut miles runAvg speedWind from/ knotsBaromVisibWave heightAir tempDewpointWater temp
2016-May-28 00:33N 57°27' E 007°37'4 4.1
2016-May-27 23:33N 57°28' E 007°30'4 4.1
2016-May-27 22:33N 57°28' E 007°22'4 4.1
2016-May-27 21:33N 57°28' E 007°14'3 2.7
2016-May-27 20:28N 57°27' E 007°09'3 3.4
2016-May-27 19:31N 57°27' E 007°03'4 3.8
2016-May-27 18:33N 57°27' E 006°56'4 3.7
2016-May-27 17:33N 57°29' E 006°50'3 3.2
2016-May-27 16:33N 57°30' E 006°45'3 3.0
2016-May-27 15:33N 57°32' E 006°41'4 3.9
2016-May-27 14:33N 57°34' E 006°35'4 4.0
2016-May-27 13:33N 57°37' E 006°30'4 4.1
2016-May-27 12:33N 57°40' E 006°24'4 3.9
2016-May-27 11:33N 57°40' E 006°16'4 4.1
2016-May-27 10:33N 57°41' E 006°09'23 7.6
2016-May-27 07:28N 57°51' E 005°30'9 9.7
2016-May-27 06:34N 57°55' E 005°15'9 9.3
2016-May-27 05:34N 58°00' E 005°00'10 9.6
2016-May-27 04:34N 58°05' E 004°45'5 4.9
2016-May-27 03:34N 58°07' E 004°36'4 4.0
2016-May-27 02:34N 58°09' E 004°30'4 4.1
2016-May-27 01:34N 58°12' E 004°24'4 3.9
2016-May-27 00:34N 58°14' E 004°18'4 4.0
2016-May-26 23:34N 58°17' E 004°13'4 3.9
2016-May-26 22:34N 58°20' E 004°07'4 3.8
2016-May-26 21:33N 58°23' E 004°03'4 3.6
2016-May-26 20:32N 58°26' E 003°59'6 6.5
2016-May-26 19:33N 58°30' E 003°50'1010.3
2016-May-26 18:33N 58°39' E 003°41'1311.0
2016-May-26 17:22N 58°51' E 003°29'3 0.3
2016-May-26 05:33N 58°49' E 003°34'4 4.0
2016-May-26 04:33N 58°53' E 003°31'4 4.0
2016-May-26 03:33N 58°56' E 003°27'4 4.0
2016-May-26 02:34N 58°60' E 003°24'4 4.1
2016-May-26 01:29N 59°04' E 003°24'  
2016-May-21 07:32N 58°49' E 004°23'1111.0
2016-May-21 06:33N 58°42' E 004°39'1110.9
2016-May-21 05:33N 58°35' E 004°55'2110.6
2016-May-21 03:33N 58°22' E 005°26'1510.7
2016-May-21 02:08N 58°12' E 005°48'610.1
2016-May-21 01:32N 58°08' E 005°57'9 9.5
2016-May-21 00:33N 58°02' E 006°11'9 8.9
2016-May-20 23:33N 57°57' E 006°24'  

Dump ship's entire track history